createdAt,value
2018-02-02T00:02:19.566Z,2.20
2018-02-02T00:04:47.187Z,2.20
2018-02-02T00:07:14.785Z,2.20
2018-02-02T00:09:42.337Z,2.20
2018-02-02T00:12:09.982Z,2.20
2018-02-02T00:14:37.555Z,2.20
2018-02-02T00:17:05.183Z,2.20
2018-02-02T00:19:32.755Z,2.20
2018-02-02T00:22:00.376Z,2.10
2018-02-02T00:24:27.980Z,2.10
2018-02-02T00:26:55.559Z,2.10
2018-02-02T00:29:23.157Z,2.00
2018-02-02T00:31:51.185Z,1.90
2018-02-02T00:34:18.725Z,2.00
2018-02-02T00:36:46.303Z,1.90
2018-02-02T00:39:13.902Z,2.00
2018-02-02T00:41:41.482Z,1.90
2018-02-02T00:44:09.055Z,1.80
2018-02-02T00:46:36.669Z,1.80
2018-02-02T00:49:04.287Z,1.70
2018-02-02T00:51:37.469Z,1.60
2018-02-02T00:54:05.039Z,1.50
2018-02-02T00:56:32.605Z,1.50
2018-02-02T00:59:00.235Z,1.50
2018-02-02T01:01:27.825Z,1.40
2018-02-02T01:03:55.411Z,1.40
2018-02-02T01:06:23.429Z,1.30
2018-02-02T01:08:51.031Z,1.40
2018-02-02T01:11:18.625Z,1.30
2018-02-02T01:13:46.185Z,1.40
2018-02-02T01:16:13.723Z,1.40
2018-02-02T01:18:41.359Z,1.40
2018-02-02T01:21:08.917Z,1.40
2018-02-02T01:23:36.535Z,1.40
2018-02-02T01:26:04.119Z,1.40
2018-02-02T01:28:31.677Z,1.40
2018-02-02T01:30:59.297Z,1.40
2018-02-02T01:33:26.935Z,1.40
2018-02-02T01:35:54.546Z,1.40
2018-02-02T01:38:22.117Z,1.30
2018-02-02T01:40:49.677Z,1.30
2018-02-02T01:43:17.333Z,1.30
2018-02-02T01:45:44.920Z,1.30
2018-02-02T01:48:21.267Z,1.30
2018-02-02T01:50:49.653Z,1.30
2018-02-02T01:53:17.229Z,1.30
2018-02-02T01:55:44.829Z,1.30
2018-02-02T01:58:12.434Z,1.30
2018-02-02T02:00:40.373Z,1.30
2018-02-02T02:03:07.959Z,1.30
2018-02-02T02:05:35.510Z,1.20
2018-02-02T02:08:03.068Z,1.20
2018-02-02T02:10:30.617Z,1.30
2018-02-02T02:12:58.211Z,1.30
2018-02-02T02:15:25.799Z,1.40
2018-02-02T02:17:53.373Z,1.40
2018-02-02T02:20:20.945Z,1.40
2018-02-02T02:22:48.585Z,1.30
2018-02-02T02:25:16.175Z,1.30
2018-02-02T02:27:43.769Z,1.30
2018-02-02T02:30:11.357Z,1.20
2018-02-02T02:32:38.932Z,1.20
2018-02-02T02:35:06.533Z,1.10
2018-02-02T02:37:34.103Z,1.00
2018-02-02T02:40:01.688Z,1.00
2018-02-02T02:42:29.266Z,1.00
2018-02-02T02:44:56.854Z,0.90
2018-02-02T02:47:24.848Z,0.80
2018-02-02T02:49:52.491Z,0.80
2018-02-02T02:52:20.110Z,0.80
2018-02-02T02:54:47.693Z,0.80
2018-02-02T02:57:15.278Z,0.90
2018-02-02T02:59:42.897Z,0.90
2018-02-02T03:02:10.466Z,0.90
2018-02-02T03:04:38.110Z,1.00
2018-02-02T03:07:05.707Z,1.00
2018-02-02T03:09:33.325Z,1.10
2018-02-02T03:12:00.882Z,1.20
2018-02-02T03:14:28.511Z,1.20
2018-02-02T03:16:56.125Z,1.20
2018-02-02T03:19:23.701Z,1.20
2018-02-02T03:21:51.277Z,1.20
2018-02-02T03:24:18.878Z,1.10
2018-02-02T03:26:46.429Z,1.00
2018-02-02T03:29:14.049Z,1.00
2018-02-02T03:31:41.678Z,0.90
2018-02-02T03:34:09.637Z,0.80
2018-02-02T03:36:37.217Z,0.80
2018-02-02T03:39:05.553Z,0.70
2018-02-02T03:41:33.135Z,0.70
2018-02-02T03:44:00.737Z,0.70
2018-02-02T03:46:28.337Z,0.70
2018-02-02T03:48:55.976Z,0.70
2018-02-02T03:51:23.556Z,0.70
2018-02-02T03:53:51.110Z,0.70
2018-02-02T03:56:18.764Z,0.60
2018-02-02T03:58:46.706Z,0.50
2018-02-02T04:01:14.323Z,0.50
2018-02-02T04:03:42.258Z,0.40
2018-02-02T04:06:09.868Z,0.40
2018-02-02T04:08:37.460Z,0.40
2018-02-02T04:11:05.049Z,0.50
2018-02-02T04:13:32.665Z,0.50
2018-02-02T04:16:00.283Z,0.50
2018-02-02T04:18:27.838Z,0.60
2018-02-02T04:20:55.430Z,0.60
2018-02-02T04:23:23.014Z,0.60
2018-02-02T04:25:50.634Z,0.50
2018-02-02T04:28:18.227Z,0.40
2018-02-02T04:30:45.797Z,0.40
2018-02-02T04:33:13.388Z,0.40
2018-02-02T04:35:53.829Z,0.40
2018-02-02T04:38:21.438Z,0.40
2018-02-02T04:40:49.082Z,0.40
2018-02-02T04:43:16.662Z,0.50
2018-02-02T04:45:44.267Z,0.50
2018-02-02T04:48:11.838Z,0.60
2018-02-02T04:50:39.425Z,0.70
2018-02-02T04:53:07.007Z,0.90
2018-02-02T04:55:34.606Z,1.00
2018-02-02T04:58:02.218Z,1.10
2018-02-02T05:00:29.793Z,1.20
2018-02-02T05:02:57.415Z,1.20
2018-02-02T05:05:24.985Z,1.20
2018-02-02T05:07:52.604Z,1.20
2018-02-02T05:10:20.193Z,1.10
2018-02-02T05:12:47.786Z,1.00
2018-02-02T05:15:15.333Z,0.80
2018-02-02T05:17:42.907Z,0.60
2018-02-02T05:20:10.453Z,0.60
2018-02-02T05:22:38.078Z,0.40
2018-02-02T05:25:05.655Z,0.40
2018-02-02T05:27:33.343Z,0.20
2018-02-02T05:30:00.929Z,0.20
2018-02-02T05:32:28.543Z,0.20
2018-02-02T05:34:56.100Z,0.10
2018-02-02T05:37:23.700Z,0.00
2018-02-02T05:39:51.302Z,-0.10
2018-02-02T05:42:18.914Z,-0.10
2018-02-02T05:44:46.522Z,-0.10
2018-02-02T05:47:14.134Z,-0.10
2018-02-02T05:49:41.698Z,-0.20
2018-02-02T05:52:09.253Z,-0.20
2018-02-02T05:54:36.819Z,-0.30
2018-02-02T05:57:04.381Z,-0.30
2018-02-02T05:59:31.994Z,-0.30
2018-02-02T06:02:00.176Z,-0.30
2018-02-02T06:04:27.817Z,-0.30
2018-02-02T06:06:55.514Z,-0.30
2018-02-02T06:09:23.109Z,-0.40
2018-02-02T06:11:51.098Z,-0.50
2018-02-02T06:14:18.702Z,-0.50
2018-02-02T06:16:46.294Z,-0.50
2018-02-02T06:19:25.503Z,-0.60
2018-02-02T06:21:53.071Z,-0.60
2018-02-02T06:24:20.666Z,-0.40
2018-02-02T06:26:48.258Z,-0.50
2018-02-02T06:29:15.915Z,-0.50
2018-02-02T06:31:43.500Z,-0.50
2018-02-02T06:34:11.094Z,-0.60
2018-02-02T06:36:38.696Z,-0.70
2018-02-02T06:39:06.326Z,-0.70
2018-02-02T06:41:33.874Z,-0.70
2018-02-02T06:44:01.840Z,-0.70
2018-02-02T06:46:29.462Z,-0.70
2018-02-02T06:48:57.061Z,-0.70
2018-02-02T06:51:24.644Z,-0.70
2018-02-02T06:53:52.242Z,-0.70
2018-02-02T06:56:19.789Z,-0.70
2018-02-02T06:58:47.603Z,-0.60
2018-02-02T07:01:15.153Z,-0.60
2018-02-02T07:03:42.760Z,-0.60
2018-02-02T07:06:10.328Z,-0.60
2018-02-02T07:08:37.967Z,-0.60
2018-02-02T07:11:05.549Z,-0.60
2018-02-02T07:13:33.125Z,-0.60
2018-02-02T07:16:00.685Z,-0.50
2018-02-02T07:18:28.531Z,-0.40
2018-02-02T07:20:56.102Z,-0.30
2018-02-02T07:23:23.729Z,-0.20
2018-02-02T07:25:51.302Z,-0.10
2018-02-02T07:28:18.905Z,0.00
2018-02-02T07:30:46.481Z,0.20
2018-02-02T07:33:14.043Z,0.40
2018-02-02T07:35:41.657Z,0.60
2018-02-02T07:38:09.214Z,0.80
2018-02-02T07:40:36.818Z,0.90
2018-02-02T07:43:04.381Z,1.10
2018-02-02T07:45:31.970Z,1.20
2018-02-02T07:47:59.510Z,1.40
2018-02-02T07:50:27.961Z,1.60
2018-02-02T07:52:55.545Z,1.80
2018-02-02T07:55:23.141Z,2.00
2018-02-02T07:57:50.773Z,2.20
2018-02-02T08:00:18.356Z,2.40
2018-02-02T08:02:46.331Z,2.70
2018-02-02T08:05:13.950Z,2.70
2018-02-02T08:07:41.506Z,2.80
2018-02-02T08:10:09.095Z,3.00
2018-02-02T08:12:36.665Z,3.10
2018-02-02T08:15:04.270Z,3.20
2018-02-02T08:17:31.887Z,3.20
2018-02-02T08:19:59.484Z,3.30
2018-02-02T08:22:27.089Z,3.40
2018-02-02T08:24:55.291Z,3.40
2018-02-02T08:27:22.887Z,3.50
2018-02-02T08:29:50.510Z,3.50
2018-02-02T08:32:18.470Z,3.60
2018-02-02T08:34:46.072Z,3.60
2018-02-02T08:37:13.657Z,3.70
2018-02-02T08:39:41.247Z,3.80
2018-02-02T08:42:09.202Z,3.90
2018-02-02T08:44:36.769Z,3.90
2018-02-02T08:47:04.752Z,3.90
2018-02-02T08:49:32.337Z,4.00
2018-02-02T08:51:59.905Z,4.00
2018-02-02T08:54:27.731Z,4.00
2018-02-02T08:56:55.298Z,4.00
2018-02-02T08:59:22.900Z,4.00
2018-02-02T09:01:56.058Z,4.00
2018-02-02T09:04:23.618Z,4.10
2018-02-02T09:06:51.271Z,4.20
2018-02-02T09:09:18.894Z,4.20
2018-02-02T09:11:46.484Z,4.20
2018-02-02T09:14:14.071Z,4.30
2018-02-02T09:16:41.662Z,4.30
2018-02-02T09:19:09.209Z,4.30
2018-02-02T09:21:36.818Z,4.20
2018-02-02T09:24:04.389Z,4.30
2018-02-02T09:26:31.983Z,4.30
2018-02-02T09:28:59.515Z,4.30
2018-02-02T09:31:27.092Z,4.30
2018-02-02T09:33:54.690Z,4.30
2018-02-02T09:36:22.590Z,4.40
2018-02-02T09:38:50.163Z,4.40
2018-02-02T09:41:17.749Z,4.40
2018-02-02T09:43:45.379Z,4.40
2018-02-02T09:46:12.964Z,4.40
2018-02-02T09:48:40.581Z,4.40
2018-02-02T09:51:08.158Z,4.40
2018-02-02T09:53:35.741Z,4.30
2018-02-02T09:56:03.293Z,4.30
2018-02-02T09:58:30.897Z,4.30
2018-02-02T10:00:58.917Z,4.20
2018-02-02T10:03:26.541Z,4.20
2018-02-02T10:05:54.124Z,4.00
2018-02-02T10:08:21.744Z,4.00
2018-02-02T10:10:49.293Z,3.90
2018-02-02T10:13:16.875Z,3.90
2018-02-02T10:15:44.484Z,3.90
2018-02-02T10:18:12.057Z,3.90
2018-02-02T10:20:39.599Z,3.90
2018-02-02T10:23:07.171Z,4.00
2018-02-02T10:25:34.744Z,4.10
2018-02-02T10:28:02.741Z,4.10
2018-02-02T10:30:30.282Z,4.10
2018-02-02T10:32:57.866Z,4.20
2018-02-02T10:35:25.432Z,4.30
2018-02-02T10:37:53.017Z,4.40
2018-02-02T10:40:20.606Z,4.50
2018-02-02T10:42:48.209Z,4.50
2018-02-02T10:45:15.841Z,4.30
2018-02-02T10:47:43.424Z,4.30
2018-02-02T10:50:10.983Z,4.30
2018-02-02T10:52:38.579Z,4.30
2018-02-02T10:55:06.175Z,4.30
2018-02-02T10:57:33.759Z,4.30
2018-02-02T11:00:01.318Z,4.20
2018-02-02T11:02:34.613Z,4.10
2018-02-02T11:05:02.193Z,4.10
2018-02-02T11:07:29.850Z,4.10
2018-02-02T11:09:57.662Z,3.90
2018-02-02T11:12:25.264Z,3.90
2018-02-02T11:14:52.854Z,3.90
2018-02-02T11:17:20.446Z,3.90
2018-02-02T11:19:48.240Z,3.90
2018-02-02T11:22:15.790Z,3.90
2018-02-02T11:24:43.374Z,3.90
2018-02-02T11:27:10.924Z,3.90
2018-02-02T11:29:38.494Z,4.00
2018-02-02T11:32:06.026Z,4.00
2018-02-02T11:34:33.605Z,4.10
2018-02-02T11:37:01.149Z,4.10
2018-02-02T11:39:29.173Z,4.10
2018-02-02T11:41:56.726Z,4.20
2018-02-02T11:44:24.320Z,4.10
2018-02-02T11:46:51.977Z,4.10
2018-02-02T11:49:19.595Z,4.20
2018-02-02T11:51:47.183Z,4.20
2018-02-02T11:54:14.782Z,4.20
2018-02-02T11:56:42.329Z,4.10
2018-02-02T11:59:09.907Z,4.10
2018-02-02T12:01:37.535Z,4.20
2018-02-02T12:04:05.094Z,4.30
2018-02-02T12:06:32.642Z,4.40
2018-02-02T12:09:00.242Z,4.40
2018-02-02T12:11:28.060Z,4.40
2018-02-02T12:13:56.031Z,4.50
2018-02-02T12:16:23.613Z,4.50
2018-02-02T12:18:51.207Z,4.40
2018-02-02T12:21:18.788Z,4.50
2018-02-02T12:23:52.176Z,4.60
2018-02-02T12:26:25.302Z,4.80
2018-02-02T12:28:53.812Z,4.90
2018-02-02T12:31:27.073Z,5.10
2018-02-02T12:34:00.233Z,5.00
2018-02-02T12:36:28.714Z,5.10
2018-02-02T12:38:56.291Z,4.90
2018-02-02T12:41:23.881Z,4.90
2018-02-02T12:43:51.449Z,4.70
2018-02-02T12:46:19.064Z,4.60
2018-02-02T12:48:58.373Z,4.60
2018-02-02T12:51:25.940Z,4.60
2018-02-02T12:53:53.569Z,4.60
2018-02-02T12:56:21.167Z,4.60
2018-02-02T12:58:48.747Z,4.50
2018-02-02T13:01:16.344Z,4.50
2018-02-02T13:03:43.938Z,4.50
2018-02-02T13:06:11.514Z,4.50
2018-02-02T13:08:39.078Z,4.50
2018-02-02T13:11:06.662Z,4.60
2018-02-02T13:13:34.237Z,4.60
2018-02-02T13:16:02.805Z,4.50
2018-02-02T13:18:30.406Z,4.40
2018-02-02T13:20:58.008Z,4.40
2018-02-02T13:23:25.585Z,4.30
2018-02-02T13:25:53.212Z,4.30
2018-02-02T13:28:20.803Z,4.20
2018-02-02T13:30:48.392Z,4.20
2018-02-02T13:33:16.335Z,4.20
2018-02-02T13:35:43.887Z,4.20
2018-02-02T13:38:13.055Z,4.10
2018-02-02T13:40:40.917Z,4.10
2018-02-02T13:43:08.467Z,4.10
2018-02-02T13:45:36.039Z,4.10
2018-02-02T13:48:03.622Z,4.20
2018-02-02T13:50:31.204Z,4.20
2018-02-02T13:52:58.826Z,4.20
2018-02-02T13:55:26.572Z,4.20
2018-02-02T13:57:54.141Z,4.20
2018-02-02T14:00:21.707Z,4.30
2018-02-02T14:02:49.286Z,4.40
2018-02-02T14:05:16.905Z,4.40
2018-02-02T14:07:44.542Z,4.40
2018-02-02T14:10:12.117Z,4.30
2018-02-02T14:12:39.706Z,4.40
2018-02-02T14:15:07.243Z,4.40
2018-02-02T14:17:34.797Z,4.40
2018-02-02T14:20:02.348Z,4.40
2018-02-02T14:22:29.929Z,4.30
2018-02-02T14:24:57.506Z,4.30
2018-02-02T14:27:25.132Z,4.30
2018-02-02T14:29:52.665Z,4.30
2018-02-02T14:32:20.302Z,4.30
2018-02-02T14:34:47.922Z,4.30
2018-02-02T14:37:15.494Z,4.30
2018-02-02T14:39:43.055Z,4.30
2018-02-02T14:42:11.369Z,4.30
2018-02-02T14:44:38.914Z,4.30
2018-02-02T14:47:06.916Z,4.30
2018-02-02T14:49:35.122Z,4.30
2018-02-02T14:52:02.731Z,4.40
2018-02-02T14:54:31.412Z,4.50
2018-02-02T14:56:59.028Z,4.50
2018-02-02T14:59:26.971Z,4.60
2018-02-02T15:01:55.434Z,4.60
2018-02-02T15:04:23.050Z,4.70
2018-02-02T15:06:50.650Z,4.70
2018-02-02T15:09:18.232Z,4.70
2018-02-02T15:11:46.077Z,4.70
2018-02-02T15:14:13.942Z,4.70
2018-02-02T15:16:41.554Z,4.70
2018-02-02T15:19:09.757Z,4.60
2018-02-02T15:21:37.653Z,4.60
2018-02-02T15:24:05.249Z,4.60
2018-02-02T15:26:32.832Z,4.50
2018-02-02T15:29:00.430Z,4.50
2018-02-02T15:31:27.970Z,4.50
2018-02-02T15:33:55.591Z,4.50
2018-02-02T15:36:23.151Z,4.40
2018-02-02T15:38:50.801Z,4.40
2018-02-02T15:41:18.390Z,4.40
2018-02-02T15:43:46.546Z,4.30
2018-02-02T15:46:15.235Z,4.20
2018-02-02T15:48:42.823Z,4.20
2018-02-02T15:51:11.384Z,4.20
2018-02-02T15:53:39.493Z,4.10
2018-02-02T15:56:07.062Z,4.10
2018-02-02T15:58:34.831Z,4.10
2018-02-02T16:01:02.373Z,4.00
2018-02-02T16:03:29.971Z,4.00
2018-02-02T16:05:57.963Z,4.00
2018-02-02T16:08:26.476Z,4.00
2018-02-02T16:10:54.050Z,4.00
2018-02-02T16:13:21.673Z,4.00
2018-02-02T16:15:49.331Z,4.00
2018-02-02T16:18:16.994Z,4.00
2018-02-02T16:20:44.562Z,4.00
2018-02-02T16:23:12.174Z,3.90
2018-02-02T16:25:40.205Z,3.90
2018-02-02T16:28:07.806Z,3.90
2018-02-02T16:30:35.369Z,3.90
2018-02-02T16:33:02.925Z,3.90
2018-02-02T16:35:30.517Z,3.80
2018-02-02T16:37:58.126Z,3.80
2018-02-02T16:40:25.718Z,3.80
2018-02-02T16:42:59.798Z,3.80
2018-02-02T16:45:27.456Z,3.80
2018-02-02T16:47:55.001Z,3.80
2018-02-02T16:50:22.585Z,3.80
2018-02-02T16:52:50.145Z,3.80
2018-02-02T16:55:17.794Z,3.80
2018-02-02T16:57:45.381Z,3.70
2018-02-02T17:00:13.393Z,3.70
2018-02-02T17:02:40.963Z,3.70
2018-02-02T17:05:08.559Z,3.70
2018-02-02T17:07:36.163Z,3.70
2018-02-02T17:10:03.823Z,3.70
2018-02-02T17:12:31.412Z,3.70
2018-02-02T17:14:59.022Z,3.70
2018-02-02T17:17:26.644Z,3.70
2018-02-02T17:19:54.426Z,3.70
2018-02-02T17:22:21.986Z,3.70
2018-02-02T17:24:49.598Z,3.70
2018-02-02T17:27:17.242Z,3.70
2018-02-02T17:29:44.843Z,3.70
2018-02-02T17:32:12.458Z,3.70
2018-02-02T17:34:40.102Z,3.70
2018-02-02T17:37:07.884Z,3.70
2018-02-02T17:39:35.477Z,3.60
2018-02-02T17:42:03.086Z,3.70
2018-02-02T17:44:30.707Z,3.70
2018-02-02T17:46:58.261Z,3.70
2018-02-02T17:49:25.843Z,3.70
2018-02-02T17:51:53.454Z,3.70
2018-02-02T17:54:21.082Z,3.70
2018-02-02T17:56:48.656Z,3.70
2018-02-02T17:59:16.250Z,3.70
2018-02-02T18:01:47.830Z,3.80
2018-02-02T18:04:15.433Z,3.80
2018-02-02T18:06:43.016Z,3.80
2018-02-02T18:09:10.577Z,3.90
2018-02-02T18:11:38.198Z,3.90
2018-02-02T18:14:05.745Z,3.90
2018-02-02T18:16:33.330Z,3.90
2018-02-02T18:19:00.881Z,3.90
2018-02-02T18:21:28.496Z,3.90
2018-02-02T18:23:56.086Z,3.90
2018-02-02T18:26:23.653Z,3.90
2018-02-02T18:28:51.292Z,3.90
2018-02-02T18:31:18.877Z,3.90
2018-02-02T18:33:46.517Z,3.90
2018-02-02T18:36:14.121Z,4.00
2018-02-02T18:38:41.663Z,3.90
2018-02-02T18:41:09.274Z,3.90
2018-02-02T18:43:36.816Z,3.90
2018-02-02T18:46:04.446Z,3.90
2018-02-02T18:48:32.021Z,4.00
2018-02-02T18:50:59.593Z,4.00
2018-02-02T18:53:27.242Z,4.00
2018-02-02T18:55:54.845Z,4.00
2018-02-02T18:58:22.395Z,4.00
2018-02-02T19:00:50.062Z,4.00
2018-02-02T19:03:17.688Z,4.00
2018-02-02T19:05:45.275Z,4.00
2018-02-02T19:08:12.906Z,4.00
2018-02-02T19:10:40.549Z,4.00
2018-02-02T19:13:08.183Z,4.00
2018-02-02T19:15:35.729Z,4.00
2018-02-02T19:18:03.344Z,3.90
2018-02-02T19:20:30.964Z,3.90
2018-02-02T19:22:58.543Z,3.90
2018-02-02T19:25:26.114Z,3.90
2018-02-02T19:27:53.740Z,3.90
2018-02-02T19:30:21.315Z,3.90
2018-02-02T19:32:48.922Z,3.90
2018-02-02T19:35:16.471Z,3.90
2018-02-02T19:37:44.056Z,3.90
2018-02-02T19:40:11.691Z,3.90
2018-02-02T19:42:39.306Z,3.90
2018-02-02T19:45:07.120Z,4.00
2018-02-02T19:47:34.708Z,4.00
2018-02-02T19:50:02.856Z,4.00
2018-02-02T19:52:30.424Z,4.00
2018-02-02T19:54:57.990Z,4.10
2018-02-02T19:57:25.578Z,4.10
2018-02-02T19:59:53.202Z,4.00
2018-02-02T20:02:20.825Z,4.10
2018-02-02T20:04:48.554Z,4.00
2018-02-02T20:07:16.201Z,4.00
2018-02-02T20:09:43.786Z,4.00
2018-02-02T20:12:11.353Z,4.00
2018-02-02T20:14:40.523Z,4.00
2018-02-02T20:17:08.176Z,4.00
2018-02-02T20:19:35.789Z,4.00
2018-02-02T20:22:03.464Z,4.00
2018-02-02T20:24:31.077Z,4.00
2018-02-02T20:26:58.704Z,4.00
2018-02-02T20:29:26.370Z,4.00
2018-02-02T20:31:53.939Z,4.00
2018-02-02T20:34:21.557Z,4.00
2018-02-02T20:36:49.192Z,4.10
2018-02-02T20:39:17.010Z,4.10
2018-02-02T20:41:44.631Z,4.10
2018-02-02T20:44:13.186Z,4.10
2018-02-02T20:47:04.154Z,4.10
2018-02-02T20:49:33.114Z,4.10
2018-02-02T20:52:00.757Z,4.10
2018-02-02T20:54:29.724Z,4.10
2018-02-02T20:56:57.811Z,4.10
2018-02-02T20:59:25.793Z,4.10
2018-02-02T21:01:53.377Z,4.10
2018-02-02T21:04:21.135Z,4.10
2018-02-02T21:06:50.542Z,4.10
2018-02-02T21:09:18.157Z,4.10
2018-02-02T21:11:46.016Z,4.10
2018-02-02T21:14:13.919Z,4.10
2018-02-02T21:16:41.987Z,4.00
2018-02-02T21:19:09.922Z,4.00
2018-02-02T21:21:37.646Z,4.00
2018-02-02T21:24:05.465Z,4.00
2018-02-02T21:26:33.281Z,4.00
2018-02-02T21:29:00.848Z,4.00
2018-02-02T21:31:28.475Z,4.00
2018-02-02T21:33:56.103Z,4.00
2018-02-02T21:36:23.666Z,4.00
2018-02-02T21:38:51.648Z,3.90
2018-02-02T21:41:19.552Z,3.90
2018-02-02T21:43:47.334Z,3.90
2018-02-02T21:46:14.956Z,3.90
2018-02-02T21:48:42.957Z,3.80
2018-02-02T21:51:10.575Z,3.80
2018-02-02T21:53:38.497Z,3.80
2018-02-02T21:56:06.883Z,3.80
2018-02-02T21:58:34.480Z,3.80
2018-02-02T22:01:02.067Z,3.80
2018-02-02T22:03:29.635Z,3.80
2018-02-02T22:05:57.454Z,3.80
2018-02-02T22:08:25.106Z,3.80
2018-02-02T22:10:52.724Z,3.80
2018-02-02T22:13:20.282Z,3.70
2018-02-02T22:15:48.377Z,3.70
2018-02-02T22:18:16.134Z,3.80
2018-02-02T22:20:43.741Z,3.80
2018-02-02T22:23:11.682Z,3.70
2018-02-02T22:25:39.285Z,3.70
2018-02-02T22:28:06.918Z,3.70
2018-02-02T22:30:34.515Z,3.70
2018-02-02T22:33:02.156Z,3.70
2018-02-02T22:35:29.819Z,3.70
2018-02-02T22:37:57.469Z,3.70
2018-02-02T22:40:25.107Z,3.70
2018-02-02T22:42:52.737Z,3.70
2018-02-02T22:45:20.394Z,3.70
2018-02-02T22:47:47.991Z,3.70
2018-02-02T22:50:15.581Z,3.70
2018-02-02T22:52:43.149Z,3.80
2018-02-02T22:55:10.757Z,3.80
2018-02-02T22:57:38.325Z,3.80
2018-02-02T23:00:06.013Z,3.80
2018-02-02T23:02:33.634Z,3.70
2018-02-02T23:05:01.214Z,3.80
2018-02-02T23:07:28.828Z,3.70
2018-02-02T23:09:56.375Z,3.70
2018-02-02T23:12:23.981Z,3.70
2018-02-02T23:14:51.603Z,3.70
2018-02-02T23:17:19.220Z,3.70
2018-02-02T23:19:46.797Z,3.70
2018-02-02T23:22:14.428Z,3.80
2018-02-02T23:24:42.011Z,3.80
2018-02-02T23:27:09.648Z,3.70
2018-02-02T23:29:37.230Z,3.70
2018-02-02T23:32:04.867Z,3.70
2018-02-02T23:34:32.410Z,3.70
2018-02-02T23:37:00.002Z,3.70
2018-02-02T23:39:27.541Z,3.70
2018-02-02T23:41:55.162Z,3.70
2018-02-02T23:44:23.133Z,3.60
2018-02-02T23:46:50.736Z,3.60
2018-02-02T23:49:18.295Z,3.50
2018-02-02T23:51:45.893Z,3.40
2018-02-02T23:54:13.534Z,3.30
2018-02-02T23:56:41.117Z,3.20
2018-02-02T23:59:09.105Z,3.00
